Time;durP1;ratioP1;P1;durP2;ratioP2;P2;SDS_P1;SDS_P2;PMS_P1;PMS_P2;Temp;Humidity;BMP_temperature;BMP_pressure;BME280_temperature;BME280_humidity;BME280_pressure;Samples;Min_cycle;Max_cycle;Signal;HPM_P1;HPM_P2
2022/08/16 00:01:55;;;;;;;16.88;15.25;;;21.60;99.90;;;;;;5075220;28;20119;-72
2022/08/16 00:04:21;;;;;;;18.33;16.52;;;21.60;99.90;;;;;;5072231;28;20044;-72
2022/08/16 00:06:47;;;;;;;16.90;14.88;;;21.50;99.90;;;;;;5075388;28;20551;-73
2022/08/16 00:09:13;;;;;;;17.05;15.25;;;21.50;99.90;;;;;;5061096;28;20044;-72
2022/08/16 00:11:40;;;;;;;18.45;15.82;;;21.50;99.90;;;;;;5066566;28;20053;-73
2022/08/16 00:14:11;;;;;;;16.92;15.10;;;21.50;99.90;;;;;;5068667;28;20041;-72
2022/08/16 00:16:37;;;;;;;16.77;15.10;;;21.50;99.90;;;;;;5060320;28;20545;-72
2022/08/16 00:19:03;;;;;;;16.77;14.27;;;21.50;99.90;;;;;;5059398;28;20032;-73
2022/08/16 00:21:29;;;;;;;14.93;13.43;;;21.50;99.90;;;;;;5075070;28;20047;-72
2022/08/16 00:23:55;;;;;;;15.15;13.48;;;21.40;99.90;;;;;;5063792;28;20040;-72
2022/08/16 00:26:21;;;;;;;15.48;13.98;;;21.40;99.90;;;;;;5063278;28;20052;-72
2022/08/16 00:28:46;;;;;;;15.48;13.98;;;21.40;99.90;;;;;;5072845;28;20052;-72
2022/08/16 00:31:12;;;;;;;17.45;15.77;;;21.40;99.90;;;;;;5056552;28;20048;-72
2022/08/16 00:33:38;;;;;;;17.30;15.43;;;21.30;99.90;;;;;;5042252;28;20129;-72
2022/08/16 00:36:04;;;;;;;18.20;16.60;;;21.30;99.90;;;;;;5067717;28;20045;-73
2022/08/16 00:38:29;;;;;;;18.13;16.45;;;21.30;99.90;;;;;;5054053;28;20126;-73
2022/08/16 00:40:55;;;;;;;17.80;16.15;;;21.30;99.90;;;;;;5071992;28;20039;-72
2022/08/16 00:43:33;;;;;;;15.90;14.25;;;21.30;99.90;;;;;;5063930;28;20102;-73
2022/08/16 00:46:32;;;;;;;19.30;14.20;;;21.30;99.90;;;;;;5072898;28;20051;-73
2022/08/16 00:48:59;;;;;;;15.65;13.95;;;21.30;99.90;;;;;;5070480;28;20119;-72
2022/08/16 00:51:26;;;;;;;15.30;13.90;;;21.20;99.90;;;;;;5061046;28;20090;-73
2022/08/16 00:53:53;;;;;;;16.48;13.00;;;21.20;99.90;;;;;;5067893;28;20046;-72
2022/08/16 00:56:25;;;;;;;15.82;14.10;;;21.20;99.90;;;;;;5068178;28;20043;-72
2022/08/16 00:58:51;;;;;;;15.55;13.95;;;21.20;99.90;;;;;;5091901;28;20437;-72
2022/08/16 01:01:17;;;;;;;16.15;13.50;;;21.20;99.90;;;;;;5060430;28;20052;-72
2022/08/16 01:03:47;;;;;;;17.02;13.15;;;21.20;99.90;;;;;;5084058;28;20037;-72
2022/08/16 01:06:14;;;;;;;14.43;13.05;;;21.10;99.90;;;;;;5069632;28;20565;-72
2022/08/16 01:08:41;;;;;;;14.13;12.63;;;21.10;99.90;;;;;;5076633;28;20608;-72
2022/08/16 01:11:07;;;;;;;14.60;13.20;;;21.10;99.90;;;;;;5070177;28;20437;-72
2022/08/16 01:13:35;;;;;;;15.70;14.07;;;21.10;99.90;;;;;;5073701;28;20068;-72
2022/08/16 01:16:09;;;;;;;16.38;14.60;;;21.10;99.90;;;;;;5074009;28;20482;-72
2022/08/16 01:18:50;;;;;;;16.35;14.65;;;21.00;99.90;;;;;;5073546;28;20513;-73
2022/08/16 01:21:25;;;;;;;15.00;13.38;;;21.00;99.90;;;;;;5060492;28;20060;-73
2022/08/16 01:24:14;;;;;;;16.42;14.25;;;21.10;99.90;;;;;;5073314;28;20123;-72
2022/08/16 01:26:41;;;;;;;16.40;14.88;;;21.00;99.90;;;;;;5072860;28;20039;-72
2022/08/16 01:29:12;;;;;;;19.88;16.02;;;21.00;99.90;;;;;;5091325;28;20560;-72
2022/08/16 01:31:38;;;;;;;19.10;17.15;;;21.00;99.90;;;;;;5073907;28;20064;-73
2022/08/16 01:34:03;;;;;;;18.52;16.67;;;21.00;99.90;;;;;;5068051;28;20127;-72
2022/08/16 01:36:30;;;;;;;17.75;15.75;;;21.00;99.90;;;;;;5066190;28;20040;-72
2022/08/16 01:38:55;;;;;;;17.08;15.27;;;20.90;99.90;;;;;;5073452;28;20762;-72
2022/08/16 01:41:24;;;;;;;17.33;15.38;;;20.90;99.90;;;;;;5087627;28;20044;-72
2022/08/16 01:43:52;;;;;;;16.75;14.98;;;20.90;99.90;;;;;;5068314;28;20410;-72
2022/08/16 01:46:27;;;;;;;20.75;16.23;;;20.80;99.90;;;;;;5070097;28;20075;-73
2022/08/16 01:49:08;;;;;;;18.58;16.83;;;20.80;99.90;;;;;;5080991;28;20079;-73
2022/08/16 01:51:35;;;;;;;17.20;15.43;;;20.80;99.90;;;;;;5065096;28;20102;-72
2022/08/16 01:54:02;;;;;;;17.48;15.82;;;20.70;99.90;;;;;;5098079;28;20386;-72
2022/08/16 01:56:28;;;;;;;17.48;15.70;;;20.70;99.90;;;;;;5077543;28;20042;-72
2022/08/16 01:58:56;;;;;;;18.30;15.18;;;20.70;99.90;;;;;;5069367;28;20479;-73
2022/08/16 02:01:22;;;;;;;18.15;16.25;;;20.60;99.90;;;;;;5077840;28;20428;-72
2022/08/16 02:03:48;;;;;;;18.20;16.42;;;20.60;99.90;;;;;;5063499;28;20040;-72
2022/08/16 02:06:13;;;;;;;20.63;18.10;;;20.50;99.90;;;;;;5088579;28;20364;-73
2022/08/16 02:08:39;;;;;;;20.30;18.10;;;20.50;99.90;;;;;;5074343;28;20051;-72
2022/08/16 02:11:07;;;;;;;19.83;16.98;;;20.40;99.90;;;;;;5068951;28;20448;-72
2022/08/16 02:13:34;;;;;;;18.73;16.73;;;20.30;99.90;;;;;;5072567;28;20036;-72
2022/08/16 02:16:00;;;;;;;20.10;17.33;;;20.30;99.90;;;;;;5094460;28;20040;-72
2022/08/16 02:18:26;;;;;;;19.42;17.33;;;20.30;99.90;;;;;;5065452;28;20514;-72
2022/08/16 02:20:52;;;;;;;18.58;16.77;;;20.30;99.90;;;;;;5068053;28;20032;-72
2022/08/16 02:23:18;;;;;;;26.38;18.42;;;20.20;99.90;;;;;;5062400;28;20044;-72
2022/08/16 02:25:46;;;;;;;19.85;17.77;;;20.20;99.90;;;;;;5076727;28;20066;-72
2022/08/16 02:28:12;;;;;;;19.60;17.60;;;20.20;99.90;;;;;;5076868;28;20109;-72
2022/08/16 02:30:38;;;;;;;18.77;16.98;;;20.20;99.90;;;;;;5067844;28;20479;-73
2022/08/16 02:33:04;;;;;;;18.25;16.48;;;20.20;99.90;;;;;;5062254;28;20075;-73
2022/08/16 02:35:31;;;;;;;18.80;16.90;;;20.20;99.90;;;;;;5066194;28;20043;-72
2022/08/16 02:37:57;;;;;;;18.80;16.98;;;20.10;99.90;;;;;;5063035;28;20036;-72
2022/08/16 02:40:24;;;;;;;18.75;16.85;;;20.10;99.90;;;;;;5076729;28;20036;-72
2022/08/16 02:42:51;;;;;;;17.80;16.05;;;20.00;99.90;;;;;;5094736;28;20036;-73
2022/08/16 02:45:19;;;;;;;18.55;16.73;;;20.00;99.90;;;;;;5093588;28;20044;-72
2022/08/16 02:47:45;;;;;;;19.55;17.52;;;20.00;99.90;;;;;;5074725;28;20131;-72
2022/08/16 02:50:11;;;;;;;19.02;17.25;;;19.90;99.90;;;;;;5090532;28;20475;-72
2022/08/16 02:52:36;;;;;;;18.70;16.80;;;19.90;99.90;;;;;;5069975;28;20044;-72
2022/08/16 02:55:03;;;;;;;21.23;18.60;;;19.80;99.90;;;;;;5064419;28;20462;-72
2022/08/16 02:57:29;;;;;;;20.13;17.27;;;19.80;99.90;;;;;;5076207;28;20046;-73
2022/08/16 02:59:55;;;;;;;19.55;17.52;;;19.80;99.90;;;;;;5094274;28;20089;-72
2022/08/16 03:02:21;;;;;;;20.55;18.50;;;19.80;99.90;;;;;;5062518;28;20040;-72
2022/08/16 03:04:47;;;;;;;20.90;18.17;;;19.80;99.90;;;;;;5093776;28;20443;-72
2022/08/16 03:07:13;;;;;;;19.65;17.63;;;19.70;99.90;;;;;;5062247;28;20083;-72
2022/08/16 03:09:40;;;;;;;20.42;17.38;;;19.70;99.90;;;;;;5063460;28;20047;-72
2022/08/16 03:12:06;;;;;;;19.83;17.35;;;19.70;99.90;;;;;;5093638;28;20052;-72
2022/08/16 03:14:32;;;;;;;20.05;17.98;;;19.70;99.90;;;;;;5081116;28;20047;-72
2022/08/16 03:16:59;;;;;;;19.02;17.05;;;19.70;99.90;;;;;;5063401;28;20086;-72
2022/08/16 03:19:25;;;;;;;18.67;16.67;;;19.60;99.90;;;;;;5083071;28;20390;-72
2022/08/16 03:21:51;;;;;;;19.10;16.48;;;19.60;99.90;;;;;;5101050;28;20039;-72
2022/08/16 03:24:17;;;;;;;18.48;16.58;;;19.60;99.90;;;;;;5087079;28;20059;-72
2022/08/16 03:26:43;;;;;;;11.85;10.95;;;19.60;99.90;;;;;;5095071;28;20055;-72
2022/08/16 03:29:10;;;;;;;15.02;13.45;;;19.50;99.90;;;;;;5106256;28;20079;-72
2022/08/16 03:31:36;;;;;;;14.77;13.30;;;19.40;99.90;;;;;;5106714;28;20047;-72
2022/08/16 03:34:02;;;;;;;15.60;14.10;;;19.30;99.90;;;;;;5093866;28;20044;-72
2022/08/16 03:36:28;;;;;;;14.57;13.43;;;19.20;99.90;;;;;;5096781;28;20065;-72
2022/08/16 03:38:53;;;;;;;15.48;13.68;;;19.10;99.90;;;;;;5095911;28;20047;-72
2022/08/16 03:41:19;;;;;;;15.35;13.90;;;19.10;99.90;;;;;;5104923;28;20035;-73
2022/08/16 03:43:45;;;;;;;11.85;10.75;;;19.00;99.90;;;;;;5080912;28;20035;-72
2022/08/16 03:46:11;;;;;;;11.57;10.30;;;19.00;99.90;;;;;;5084425;28;20098;-72
2022/08/16 03:48:38;;;;;;;12.93;11.43;;;18.90;99.90;;;;;;5107363;28;20079;-73
2022/08/16 03:51:07;;;;;;;8.07;7.38;;;18.80;99.90;;;;;;5086217;28;20084;-72
2022/08/16 03:53:33;;;;;;;11.02;10.00;;;18.80;99.90;;;;;;5095465;28;20096;-72
2022/08/16 03:55:59;;;;;;;10.63;9.63;;;18.80;99.90;;;;;;5095879;28;20074;-72
2022/08/16 03:58:25;;;;;;;17.15;15.65;;;18.70;99.90;;;;;;5104371;28;20067;-73
2022/08/16 04:00:50;;;;;;;18.67;16.75;;;18.80;99.90;;;;;;5095213;28;20146;-72
2022/08/16 04:03:17;;;;;;;18.67;16.77;;;18.80;99.90;;;;;;5096250;28;20067;-73
2022/08/16 04:05:46;;;;;;;20.02;17.90;;;18.70;99.90;;;;;;5085755;28;20126;-72
2022/08/16 04:08:12;;;;;;;19.10;17.30;;;18.80;99.90;;;;;;5108639;28;20099;-72
2022/08/16 04:10:39;;;;;;;18.10;16.42;;;18.80;99.90;;;;;;5102160;28;20032;-72
2022/08/16 04:13:04;;;;;;;18.77;17.00;;;18.80;99.90;;;;;;5097614;28;20039;-72
2022/08/16 04:15:30;;;;;;;18.98;17.10;;;18.70;99.90;;;;;;5081683;28;20119;-72
2022/08/16 04:17:57;;;;;;;18.85;16.98;;;18.70;99.90;;;;;;5087970;28;20039;-72
2022/08/16 04:20:24;;;;;;;18.58;16.88;;;18.80;99.90;;;;;;5104354;28;20039;-72
2022/08/16 04:22:50;;;;;;;18.80;17.10;;;18.70;99.90;;;;;;5080827;28;20044;-72
2022/08/16 04:25:15;;;;;;;20.05;18.13;;;18.70;99.90;;;;;;5093773;27;20046;-72
2022/08/16 04:27:41;;;;;;;21.23;19.13;;;18.70;99.90;;;;;;5090282;28;20047;-72
2022/08/16 04:30:14;;;;;;;25.40;22.73;;;18.70;99.90;;;;;;5080441;28;20126;-72
2022/08/16 04:32:40;;;;;;;24.08;21.63;;;18.70;99.90;;;;;;5098531;28;20123;-72
2022/08/16 04:35:09;;;;;;;24.20;21.33;;;18.70;99.90;;;;;;5094680;28;20050;-72
2022/08/16 04:37:35;;;;;;;23.02;20.73;;;18.70;99.90;;;;;;5094862;28;20058;-72
2022/08/16 04:40:01;;;;;;;23.75;20.77;;;18.70;99.90;;;;;;5097406;28;20050;-73
2022/08/16 04:42:27;;;;;;;23.20;20.80;;;18.70;99.90;;;;;;5085257;28;20050;-72
2022/08/16 04:44:54;;;;;;;23.05;20.77;;;18.70;99.90;;;;;;5100825;28;20486;-72
2022/08/16 04:47:20;;;;;;;24.17;21.65;;;18.70;99.90;;;;;;5092248;28;20044;-72
2022/08/16 04:49:46;;;;;;;26.38;23.38;;;18.70;99.90;;;;;;5090121;28;20044;-72
2022/08/16 04:52:12;;;;;;;24.98;22.60;;;18.70;99.90;;;;;;5089700;28;20062;-72
2022/08/16 04:54:39;;;;;;;24.65;21.98;;;18.60;99.90;;;;;;5094291;28;20043;-72
2022/08/16 04:57:05;;;;;;;23.90;21.38;;;18.70;99.90;;;;;;5080402;28;20054;-72
2022/08/16 04:59:31;;;;;;;24.50;21.85;;;18.70;99.90;;;;;;5112379;28;20100;-72
2022/08/16 05:01:56;;;;;;;23.40;21.00;;;18.70;99.90;;;;;;5112437;28;20043;-72
2022/08/16 05:04:23;;;;;;;25.38;22.25;;;18.70;99.90;;;;;;5082392;28;20050;-72
2022/08/16 05:06:49;;;;;;;24.08;21.25;;;18.70;99.90;;;;;;5094922;28;20120;-72
2022/08/16 05:09:15;;;;;;;23.63;21.13;;;18.70;99.90;;;;;;5105545;28;20454;-72
2022/08/16 05:11:41;;;;;;;24.17;20.98;;;18.70;99.90;;;;;;5083547;28;20075;-72
2022/08/16 05:14:06;;;;;;;24.25;21.58;;;18.70;99.90;;;;;;5091545;28;20044;-73
2022/08/16 05:16:32;;;;;;;25.70;21.42;;;18.80;99.90;;;;;;5093919;28;20379;-72
2022/08/16 05:19:01;;;;;;;24.30;21.63;;;18.80;99.90;;;;;;5077089;28;20055;-72
2022/08/16 05:21:30;;;;;;;23.30;21.00;;;18.80;99.90;;;;;;5057538;28;20075;-72
2022/08/16 05:23:56;;;;;;;25.45;22.83;;;18.80;99.90;;;;;;5087374;28;20479;-72
2022/08/16 05:26:23;;;;;;;29.90;26.70;;;18.90;99.90;;;;;;5062794;28;20040;-72
2022/08/16 05:28:49;;;;;;;28.77;25.63;;;18.90;99.90;;;;;;5072715;28;20438;-72
2022/08/16 05:31:15;;;;;;;28.67;25.63;;;18.90;99.90;;;;;;5073962;28;20083;-72
2022/08/16 05:33:41;;;;;;;28.95;26.10;;;18.90;99.90;;;;;;5061279;28;20086;-72
2022/08/16 05:36:07;;;;;;;27.80;24.83;;;19.00;99.90;;;;;;5090582;28;20577;-72
2022/08/16 05:38:33;;;;;;;30.95;25.42;;;19.00;99.90;;;;;;5060791;28;20119;-72
2022/08/16 05:41:00;;;;;;;26.77;23.58;;;19.10;99.90;;;;;;5090522;28;20054;-73
2022/08/16 05:43:26;;;;;;;27.95;24.42;;;19.20;99.90;;;;;;5073536;28;20067;-72
2022/08/16 05:45:53;;;;;;;27.13;24.27;;;19.20;99.90;;;;;;5073447;28;20051;-72
2022/08/16 05:48:19;;;;;;;25.05;22.45;;;19.30;99.90;;;;;;5073801;28;20468;-72
2022/08/16 05:50:45;;;;;;;24.75;22.10;;;19.30;99.90;;;;;;5070001;28;20391;-72
2022/08/16 05:53:11;;;;;;;24.70;21.55;;;19.40;99.90;;;;;;5080581;28;20044;-73
2022/08/16 05:55:37;;;;;;;26.73;21.70;;;19.50;99.90;;;;;;5073761;28;20063;-72
2022/08/16 05:58:02;;;;;;;25.35;21.10;;;19.60;99.90;;;;;;5055334;28;20299;-72
2022/08/16 06:00:28;;;;;;;23.23;20.77;;;19.70;99.90;;;;;;5066047;28;20041;-72
2022/08/16 06:02:56;;;;;;;25.10;21.10;;;19.70;99.90;;;;;;5063890;28;20039;-72
2022/08/16 06:05:22;;;;;;;23.23;20.85;;;19.80;99.90;;;;;;5091460;28;20375;-72
2022/08/16 06:07:49;;;;;;;26.50;21.70;;;19.90;99.90;;;;;;5081218;28;20169;-73
2022/08/16 06:10:16;;;;;;;24.50;21.90;;;19.90;99.90;;;;;;5087773;28;20278;-72
2022/08/16 06:12:42;;;;;;;24.50;21.23;;;20.00;99.90;;;;;;5100954;28;20044;-73
2022/08/16 06:15:14;;;;;;;23.73;21.23;;;20.00;99.90;;;;;;5074756;28;20036;-72
2022/08/16 06:17:40;;;;;;;22.52;20.00;;;20.10;99.90;;;;;;5098788;28;20032;-72
2022/08/16 06:20:07;;;;;;;21.50;19.30;;;20.10;99.90;;;;;;5093422;28;20035;-72
2022/08/16 06:22:36;;;;;;;22.98;20.27;;;20.20;99.90;;;;;;5082939;28;20040;-72
2022/08/16 06:25:03;;;;;;;23.05;19.80;;;20.30;99.90;;;;;;5065387;28;20078;-73
2022/08/16 06:27:29;;;;;;;24.13;20.45;;;20.30;99.90;;;;;;5072967;28;20090;-72
2022/08/16 06:29:55;;;;;;;23.35;20.85;;;20.30;99.90;;;;;;5069458;28;20515;-72
2022/08/16 06:32:20;;;;;;;27.13;20.48;;;20.30;99.90;;;;;;5089893;28;20050;-72
2022/08/16 06:34:46;;;;;;;24.77;21.20;;;20.30;99.90;;;;;;5068156;28;20040;-72
2022/08/16 06:37:12;;;;;;;23.35;20.40;;;20.30;99.90;;;;;;5082153;28;20051;-72
2022/08/16 06:39:38;;;;;;;23.85;21.25;;;20.30;99.90;;;;;;5088444;28;20578;-72
2022/08/16 06:42:04;;;;;;;24.83;20.92;;;20.30;99.90;;;;;;5095037;28;20044;-72
2022/08/16 06:44:30;;;;;;;22.67;20.38;;;20.30;99.90;;;;;;5076503;28;20139;-73
2022/08/16 06:46:56;;;;;;;24.30;21.70;;;20.30;99.90;;;;;;5093881;28;20463;-72
2022/08/16 06:49:22;;;;;;;25.90;21.15;;;20.30;99.90;;;;;;5094465;28;20496;-72
2022/08/16 06:51:48;;;;;;;23.85;21.25;;;20.40;99.90;;;;;;5076459;28;20046;-73
2022/08/16 06:54:14;;;;;;;22.50;20.05;;;20.50;99.90;;;;;;5069463;28;20419;-72
2022/08/16 06:56:41;;;;;;;25.88;20.80;;;20.60;99.90;;;;;;5069919;28;20040;-72
2022/08/16 06:59:07;;;;;;;24.15;21.45;;;20.70;99.90;;;;;;5062311;28;20050;-72
2022/08/16 07:01:33;;;;;;;22.63;20.40;;;20.80;99.90;;;;;;5094042;28;20446;-72
2022/08/16 07:03:59;;;;;;;27.80;20.75;;;20.90;99.90;;;;;;5080093;28;20062;-72
2022/08/16 07:06:25;;;;;;;22.60;20.20;;;21.00;99.90;;;;;;5069834;28;20437;-73
2022/08/16 07:08:51;;;;;;;24.05;20.23;;;21.10;99.90;;;;;;5072545;28;20487;-73
2022/08/16 07:11:19;;;;;;;23.23;20.70;;;21.20;99.90;;;;;;5084010;28;20046;-72
2022/08/16 07:13:45;;;;;;;21.90;19.60;;;21.30;99.90;;;;;;5089071;28;20048;-72
2022/08/16 07:16:13;;;;;;;21.92;19.25;;;21.40;99.90;;;;;;5076186;28;20486;-72
2022/08/16 07:18:48;;;;;;;21.58;19.38;;;21.50;99.90;;;;;;5075518;28;20040;-72
2022/08/16 07:21:14;;;;;;;22.58;19.17;;;21.60;99.90;;;;;;5072850;28;20044;-72
2022/08/16 07:23:40;;;;;;;22.35;20.02;;;21.70;99.90;;;;;;5061438;28;20048;-72
2022/08/16 07:26:10;;;;;;;21.95;19.65;;;21.80;99.90;;;;;;5068782;28;20048;-72
2022/08/16 07:28:36;;;;;;;21.88;19.55;;;21.90;99.90;;;;;;5060485;28;20048;-72
2022/08/16 07:31:03;;;;;;;23.08;20.75;;;22.00;99.90;;;;;;5080146;28;20036;-72
2022/08/16 07:33:31;;;;;;;23.45;20.30;;;22.10;99.90;;;;;;5085601;28;20040;-72
2022/08/16 07:35:58;;;;;;;24.35;21.58;;;22.20;99.90;;;;;;5071823;28;20044;-72
2022/08/16 07:38:26;;;;;;;23.20;20.55;;;22.40;99.90;;;;;;5064283;28;20036;-72
2022/08/16 07:40:53;;;;;;;23.55;21.05;;;22.40;99.90;;;;;;5084914;28;20029;-72
2022/08/16 07:43:20;;;;;;;21.95;19.80;;;22.60;99.90;;;;;;5085537;28;20161;-72
2022/08/16 07:45:46;;;;;;;20.38;18.30;;;22.70;99.90;;;;;;5067750;28;20056;-72
2022/08/16 07:48:12;;;;;;;24.92;19.48;;;22.70;99.90;;;;;;5055546;28;20040;-72
2022/08/16 07:50:37;;;;;;;21.00;18.60;;;22.90;99.90;;;;;;5075375;28;20046;-72
2022/08/16 07:53:03;;;;;;;23.50;19.92;;;23.00;99.90;;;;;;5092752;28;20127;-72
2022/08/16 07:55:29;;;;;;;21.67;19.00;;;23.10;99.90;;;;;;5073938;28;20040;-72
2022/08/16 07:57:55;;;;;;;20.98;18.80;;;23.20;99.90;;;;;;5062747;28;20052;-72
2022/08/16 08:00:21;;;;;;;21.77;19.58;;;23.30;99.90;;;;;;5085275;28;20055;-72
2022/08/16 08:02:47;;;;;;;20.70;18.70;;;23.40;99.90;;;;;;5055552;28;20163;-72
2022/08/16 08:05:14;;;;;;;23.73;19.40;;;23.60;99.90;;;;;;5073825;28;20051;-72
2022/08/16 08:07:39;;;;;;;24.83;19.33;;;23.60;99.90;;;;;;5081086;28;20098;-73
2022/08/16 08:10:06;;;;;;;24.02;19.90;;;23.70;99.90;;;;;;5086586;28;20033;-72
2022/08/16 08:12:32;;;;;;;22.90;18.25;;;23.80;99.90;;;;;;5055502;28;20392;-72
2022/08/16 08:14:58;;;;;;;20.88;18.23;;;23.90;99.90;;;;;;5060233;28;20058;-72
2022/08/16 08:17:23;;;;;;;21.55;19.27;;;23.90;99.90;;;;;;5088618;28;20043;-72
2022/08/16 08:19:49;;;;;;;21.48;17.80;;;23.90;99.90;;;;;;5092678;28;20044;-72
2022/08/16 08:22:15;;;;;;;19.58;16.70;;;24.00;99.90;;;;;;5082933;28;20040;-72
2022/08/16 08:24:41;;;;;;;19.38;16.80;;;24.10;99.90;;;;;;5081575;28;20082;-72
2022/08/16 08:27:07;;;;;;;20.45;17.38;;;24.30;99.90;;;;;;5092724;28;20306;-72
2022/08/16 08:29:35;;;;;;;17.90;15.88;;;24.40;99.90;;;;;;5091800;28;20052;-72
2022/08/16 08:32:02;;;;;;;23.40;16.73;;;24.40;99.90;;;;;;5092946;28;20040;-72
2022/08/16 08:34:27;;;;;;;18.23;15.15;;;24.40;99.90;;;;;;5080281;28;20486;-72
2022/08/16 08:36:53;;;;;;;17.58;15.73;;;24.50;99.90;;;;;;5089706;28;20047;-72
2022/08/16 08:39:20;;;;;;;20.05;15.25;;;24.70;99.90;;;;;;5089570;28;20044;-72
2022/08/16 08:41:46;;;;;;;19.73;16.30;;;24.80;99.90;;;;;;5087804;28;20043;-72
2022/08/16 08:44:12;;;;;;;17.58;15.73;;;24.80;99.90;;;;;;5071178;28;20094;-72
2022/08/16 08:46:39;;;;;;;22.35;15.48;;;24.80;99.90;;;;;;5088689;28;20032;-72
2022/08/16 08:49:07;;;;;;;19.15;15.45;;;24.80;99.90;;;;;;5091273;28;20068;-72
2022/08/16 08:51:33;;;;;;;17.45;14.93;;;24.90;99.90;;;;;;5108012;28;20044;-72
2022/08/16 08:53:59;;;;;;;17.20;15.23;;;25.00;99.90;;;;;;5091336;28;20036;-72
2022/08/16 08:56:25;;;;;;;19.42;16.35;;;25.30;99.90;;;;;;5090756;28;20066;-72
2022/08/16 08:58:51;;;;;;;17.58;15.70;;;25.40;99.90;;;;;;5079559;28;20040;-72
2022/08/16 09:01:21;;;;;;;17.00;15.15;;;25.50;99.90;;;;;;5084160;28;20040;-72
2022/08/16 09:03:47;;;;;;;19.25;15.13;;;25.60;99.90;;;;;;5071372;28;20055;-72
2022/08/16 09:06:13;;;;;;;16.95;15.23;;;25.80;99.90;;;;;;5098316;28;20048;-72
2022/08/16 09:08:39;;;;;;;20.20;14.77;;;25.90;99.90;;;;;;5084590;28;20527;-72
2022/08/16 09:11:04;;;;;;;19.27;14.23;;;25.90;99.90;;;;;;5070796;28;20048;-72
2022/08/16 09:13:33;;;;;;;15.80;11.95;;;26.00;99.90;;;;;;5070448;28;20123;-72
2022/08/16 09:16:00;;;;;;;17.15;12.30;;;26.00;99.90;;;;;;5090869;28;20040;-72
2022/08/16 09:18:28;;;;;;;13.88;8.30;;;26.10;99.90;;;;;;5105371;28;20039;-72
2022/08/16 09:20:54;;;;;;;12.23;7.35;;;26.30;99.90;;;;;;5074183;28;20044;-72
2022/08/16 09:23:21;;;;;;;14.95;7.53;;;26.20;96.80;;;;;;5097989;28;20044;-72
2022/08/16 09:25:48;;;;;;;23.67;8.45;;;26.30;97.10;;;;;;5081888;28;20044;-72
2022/08/16 09:28:14;;;;;;;12.38;8.30;;;26.50;95.90;;;;;;5080030;28;20051;-72
2022/08/16 09:30:41;;;;;;;10.77;8.77;;;26.50;96.60;;;;;;5098349;28;20040;-72
2022/08/16 09:33:07;;;;;;;11.48;9.18;;;26.60;96.80;;;;;;5093805;28;20044;-72
2022/08/16 09:35:34;;;;;;;15.65;8.68;;;26.80;95.50;;;;;;5093717;28;20505;-72
2022/08/16 09:38:00;;;;;;;14.77;9.93;;;26.80;95.30;;;;;;5089703;28;20035;-72
2022/08/16 09:40:26;;;;;;;11.40;8.82;;;27.00;96.80;;;;;;5081477;28;20063;-72
2022/08/16 09:42:57;;;;;;;12.15;10.63;;;27.10;96.60;;;;;;5097271;28;20039;-72
2022/08/16 09:45:24;;;;;;;11.73;9.37;;;27.10;97.00;;;;;;5092062;28;20043;-72
2022/08/16 09:47:53;;;;;;;15.65;10.07;;;27.40;97.10;;;;;;5093391;28;20050;-72
2022/08/16 09:50:21;;;;;;;13.50;10.20;;;27.60;97.40;;;;;;5093469;28;20047;-71
2022/08/16 09:52:47;;;;;;;15.23;9.55;;;27.60;95.30;;;;;;5093476;28;20044;-73
2022/08/16 09:55:13;;;;;;;11.15;6.78;;;27.50;94.00;;;;;;5081982;28;20561;-72
2022/08/16 09:57:40;;;;;;;13.98;5.50;;;27.60;93.90;;;;;;5080088;28;20039;-72
2022/08/16 10:00:09;;;;;;;13.10;5.85;;;27.70;91.70;;;;;;5079974;28;20483;-72
2022/08/16 10:02:35;;;;;;;11.15;6.30;;;27.80;90.50;;;;;;5080229;28;20040;-72
2022/08/16 10:05:01;;;;;;;7.65;4.93;;;27.70;90.10;;;;;;5093499;28;20071;-72
2022/08/16 10:07:29;;;;;;;7.63;5.30;;;27.80;86.70;;;;;;5086946;28;20434;-72
2022/08/16 10:09:55;;;;;;;6.68;5.13;;;27.70;86.60;;;;;;5086951;28;20055;-71
2022/08/16 10:15:07;;;;;;;9.68;5.43;;;28.00;87.30;;;;;;5077053;28;20032;-72
2022/08/16 10:17:33;;;;;;;7.70;5.00;;;27.90;88.10;;;;;;5084596;28;20094;-72
2022/08/16 10:19:59;;;;;;;7.28;5.88;;;28.00;85.80;;;;;;5074564;28;20040;-72
2022/08/16 10:22:25;;;;;;;7.03;4.57;;;28.20;87.90;;;;;;5066060;28;20035;-72
2022/08/16 10:24:51;;;;;;;6.13;5.53;;;28.30;84.30;;;;;;5070576;28;20032;-72
2022/08/16 10:27:19;;;;;;;10.50;6.38;;;28.60;85.20;;;;;;5086969;28;20489;-72
2022/08/16 10:29:45;;;;;;;6.85;5.63;;;28.70;85.40;;;;;;5075136;28;20047;-72
2022/08/16 10:32:11;;;;;;;6.65;4.57;;;28.70;82.50;;;;;;5066588;28;20121;-72
2022/08/16 10:34:36;;;;;;;11.25;5.03;;;28.70;80.10;;;;;;5073860;28;20487;-72
2022/08/16 10:37:02;;;;;;;7.25;4.53;;;28.70;80.10;;;;;;5073801;28;20563;-72
2022/08/16 10:39:29;;;;;;;7.28;3.55;;;28.80;80.40;;;;;;5067131;28;20502;-72
2022/08/16 10:41:55;;;;;;;9.55;5.25;;;29.00;78.80;;;;;;5088353;28;20127;-72
2022/08/16 10:44:21;;;;;;;7.68;5.35;;;29.00;76.50;;;;;;5069859;28;20553;-72
2022/08/16 10:46:48;;;;;;;9.68;6.43;;;29.10;81.10;;;;;;5057813;28;20044;-72
2022/08/16 10:49:13;;;;;;;6.22;4.10;;;29.10;80.80;;;;;;5073062;28;20097;-72
2022/08/16 10:51:39;;;;;;;9.63;4.45;;;29.10;76.70;;;;;;5062698;28;20449;-72
2022/08/16 10:54:06;;;;;;;10.15;5.25;;;29.40;79.10;;;;;;5076504;28;20114;-72
2022/08/16 10:56:32;;;;;;;6.40;5.03;;;29.80;80.10;;;;;;5046077;28;20045;-72
2022/08/16 10:58:58;;;;;;;9.63;5.45;;;30.00;80.20;;;;;;5059102;28;20089;-72
2022/08/16 11:01:24;;;;;;;6.85;4.80;;;30.10;77.30;;;;;;5076494;28;20440;-73
2022/08/16 11:03:51;;;;;;;6.30;3.78;;;30.30;76.50;;;;;;5082796;28;20058;-72
2022/08/16 11:06:17;;;;;;;8.23;4.38;;;30.20;74.70;;;;;;5076314;28;20040;-72
2022/08/16 11:08:43;;;;;;;7.90;4.38;;;29.90;72.30;;;;;;5039439;28;20040;-73
2022/08/16 11:11:10;;;;;;;5.88;4.03;;;29.70;73.40;;;;;;5069224;28;20426;-73
2022/08/16 11:13:36;;;;;;;9.10;4.80;;;29.60;73.70;;;;;;5075990;28;20054;-72
2022/08/16 11:16:03;;;;;;;5.57;4.40;;;29.90;75.90;;;;;;5081989;28;20116;-72
2022/08/16 11:18:29;;;;;;;5.05;3.90;;;30.10;72.70;;;;;;5076142;28;20044;-72
2022/08/16 11:20:57;;;;;;;6.78;3.60;;;30.10;73.10;;;;;;5072778;28;20510;-72
2022/08/16 11:23:24;;;;;;;7.25;4.13;;;30.30;72.10;;;;;;5087378;28;20032;-71
2022/08/16 11:25:50;;;;;;;7.18;3.90;;;30.60;71.60;;;;;;5067778;28;20134;-72
2022/08/16 11:28:16;;;;;;;8.30;3.90;;;30.80;71.70;;;;;;5061886;28;20049;-72
2022/08/16 11:30:42;;;;;;;6.07;3.45;;;31.00;67.70;;;;;;5075012;28;20064;-72
2022/08/16 11:33:08;;;;;;;6.30;4.07;;;31.00;69.10;;;;;;5069001;28;20044;-72
2022/08/16 11:35:34;;;;;;;11.20;3.92;;;31.20;69.00;;;;;;5075654;28;20394;-72
2022/08/16 11:38:06;;;;;;;7.68;3.58;;;31.30;68.40;;;;;;5066699;28;20089;-72
2022/08/16 11:40:37;;;;;;;6.97;3.75;;;31.50;66.40;;;;;;5090304;28;20468;-72
2022/08/16 11:43:05;;;;;;;7.20;3.90;;;31.70;68.40;;;;;;5075481;28;20082;-72
2022/08/16 11:45:32;;;;;;;6.88;3.53;;;31.90;64.60;;;;;;5066527;28;20048;-72
2022/08/16 11:47:59;;;;;;;9.13;4.07;;;32.10;65.70;;;;;;5092267;28;20118;-72
2022/08/16 11:50:25;;;;;;;7.32;4.00;;;32.20;65.60;;;;;;5061667;28;20044;-72
2022/08/16 11:52:51;;;;;;;5.78;3.45;;;32.10;64.80;;;;;;5074933;28;20051;-72
2022/08/16 11:55:17;;;;;;;5.90;3.97;;;32.20;65.50;;;;;;5068440;28;20044;-72
2022/08/16 11:57:43;;;;;;;7.72;3.13;;;32.20;62.90;;;;;;5066538;28;20032;-72
2022/08/16 12:00:13;;;;;;;12.30;3.65;;;32.40;64.70;;;;;;5061352;28;20085;-72
2022/08/16 12:02:39;;;;;;;5.20;3.45;;;32.60;64.50;;;;;;5075473;28;20044;-72
2022/08/16 12:05:10;;;;;;;4.15;3.22;;;32.90;62.70;;;;;;5070036;28;20036;-73
2022/08/16 12:07:36;;;;;;;6.88;3.90;;;32.60;62.80;;;;;;5067555;28;20048;-72
2022/08/16 12:10:06;;;;;;;8.30;3.50;;;32.60;61.20;;;;;;5061336;28;20129;-72
2022/08/16 12:12:32;;;;;;;6.18;2.78;;;32.40;60.90;;;;;;5075009;28;20040;-72
2022/08/16 12:14:57;;;;;;;5.60;2.70;;;32.20;62.10;;;;;;5056149;28;20090;-72
2022/08/16 12:17:23;;;;;;;4.05;3.00;;;32.40;61.80;;;;;;5061750;28;20487;-72
2022/08/16 12:19:49;;;;;;;7.13;3.50;;;32.60;61.00;;;;;;5067897;28;20044;-72
2022/08/16 12:22:15;;;;;;;4.05;3.13;;;32.50;59.20;;;;;;5071494;28;20039;-72
2022/08/16 12:24:41;;;;;;;5.13;2.92;;;32.60;58.70;;;;;;5072550;28;20105;-72
2022/08/16 12:27:06;;;;;;;4.00;2.58;;;32.70;57.80;;;;;;5072221;28;20139;-72
2022/08/16 12:29:32;;;;;;;7.72;2.65;;;33.00;58.80;;;;;;5054640;28;20076;-72
2022/08/16 12:31:58;;;;;;;5.10;2.40;;;33.20;59.10;;;;;;5067731;28;20044;-72